Time;durP1;ratioP1;P1;durP2;ratioP2;P2;SDS_P1;SDS_P2;PMS_P1;PMS_P2;Temp;Humidity;BMP_temperature;BMP_pressure;BME280_temperature;BME280_humidity;BME280_pressure;Samples;Min_cycle;Max_cycle;Signal;HPM_P1;HPM_P2
2024/02/27 00:02:09;;;;;;;221.47;59.00;;;;;;;;;;4973921;28;20210;-44
2024/02/27 00:04:35;;;;;;;220.87;58.87;;;;;;;;;;4975846;28;20422;-45
2024/02/27 00:07:01;;;;;;;221.00;59.22;;;;;;;;;;4973068;28;20408;-46
2024/02/27 00:09:27;;;;;;;219.35;57.00;;;;;;;;;;4976946;28;20292;-47
2024/02/27 00:11:54;;;;;;;222.77;59.50;;;;;;;;;;4978966;28;20222;-44
2024/02/27 00:14:20;;;;;;;220.88;59.15;;;;;;;;;;4973477;28;20421;-45
2024/02/27 00:16:46;;;;;;;225.85;61.50;;;;;;;;;;4973438;28;20231;-44
2024/02/27 00:19:12;;;;;;;220.95;57.80;;;;;;;;;;4973532;28;20214;-44
2024/02/27 00:21:38;;;;;;;221.57;58.47;;;;;;;;;;4977147;28;20266;-45
2024/02/27 00:24:04;;;;;;;220.57;58.17;;;;;;;;;;4973538;28;20423;-43
2024/02/27 00:26:30;;;;;;;224.93;62.13;;;;;;;;;;4972972;28;20924;-44
2024/02/27 00:28:56;;;;;;;219.83;58.07;;;;;;;;;;4979949;28;20207;-44
2024/02/27 00:31:22;;;;;;;224.25;59.85;;;;;;;;;;4972999;28;20942;-44
2024/02/27 00:33:48;;;;;;;223.43;61.30;;;;;;;;;;4973314;28;20183;-44
2024/02/27 00:36:14;;;;;;;220.73;57.70;;;;;;;;;;4973568;28;20901;-44
2024/02/27 00:38:40;;;;;;;223.55;60.85;;;;;;;;;;4978041;28;20781;-46
2024/02/27 00:41:07;;;;;;;219.27;57.50;;;;;;;;;;4975620;28;20213;-44
2024/02/27 00:43:33;;;;;;;219.38;56.28;;;;;;;;;;4976529;28;20426;-49
2024/02/27 00:45:59;;;;;;;220.87;58.13;;;;;;;;;;4972711;28;20651;-45
2024/02/27 00:48:25;;;;;;;219.50;57.93;;;;;;;;;;4973952;28;21017;-46
2024/02/27 00:50:51;;;;;;;221.23;58.40;;;;;;;;;;4976199;28;20417;-44
2024/02/27 00:53:19;;;;;;;219.63;56.40;;;;;;;;;;4978387;28;20404;-44
2024/02/27 00:55:45;;;;;;;223.82;60.10;;;;;;;;;;4991949;28;20488;-44
2024/02/27 00:58:11;;;;;;;222.07;60.78;;;;;;;;;;4988749;28;20266;-44
2024/02/27 01:00:37;;;;;;;221.57;58.38;;;;;;;;;;4991578;28;20179;-44
2024/02/27 01:03:03;;;;;;;219.50;57.50;;;;;;;;;;4991760;28;20230;-44
2024/02/27 01:05:29;;;;;;;220.70;57.75;;;;;;;;;;4991459;28;20452;-43
2024/02/27 01:07:55;;;;;;;220.37;57.07;;;;;;;;;;4991494;28;20227;-44
2024/02/27 01:10:21;;;;;;;221.17;58.07;;;;;;;;;;4991616;28;20419;-46
2024/02/27 01:12:47;;;;;;;218.93;57.37;;;;;;;;;;4991467;28;20447;-44
2024/02/27 01:15:13;;;;;;;223.97;60.30;;;;;;;;;;4991503;28;20445;-44
2024/02/27 01:17:39;;;;;;;222.68;59.45;;;;;;;;;;4991519;28;20417;-44
2024/02/27 01:20:06;;;;;;;220.95;58.30;;;;;;;;;;4991779;28;20187;-44
2024/02/27 01:22:33;;;;;;;220.50;57.58;;;;;;;;;;4991550;28;20276;-44
2024/02/27 01:24:59;;;;;;;224.27;61.83;;;;;;;;;;4991179;28;20203;-45
2024/02/27 01:27:26;;;;;;;220.98;58.20;;;;;;;;;;4991235;28;20197;-45
2024/02/27 01:29:52;;;;;;;220.35;57.50;;;;;;;;;;4991333;28;20209;-45
2024/02/27 01:32:18;;;;;;;220.02;57.80;;;;;;;;;;4991327;28;20199;-45
2024/02/27 01:34:44;;;;;;;226.17;63.37;;;;;;;;;;4991263;28;20186;-46
2024/02/27 01:37:10;;;;;;;219.70;58.20;;;;;;;;;;4991239;28;20416;-43
2024/02/27 01:39:36;;;;;;;220.38;58.10;;;;;;;;;;4991346;28;20210;-44
2024/02/27 01:42:02;;;;;;;224.52;61.67;;;;;;;;;;4991322;28;20244;-44
2024/02/27 01:44:28;;;;;;;220.47;57.40;;;;;;;;;;4991469;28;20643;-44
2024/02/27 01:46:54;;;;;;;219.70;56.90;;;;;;;;;;4990861;28;20419;-44
2024/02/27 01:49:20;;;;;;;220.75;57.70;;;;;;;;;;4991244;28;20872;-44
2024/02/27 01:51:48;;;;;;;220.05;57.00;;;;;;;;;;4991163;28;20685;-45
2024/02/27 01:54:16;;;;;;;218.80;57.00;;;;;;;;;;4991323;28;20176;-44
2024/02/27 01:56:44;;;;;;;224.55;60.55;;;;;;;;;;4987693;28;20173;-43
2024/02/27 01:59:11;;;;;;;220.10;57.95;;;;;;;;;;4992105;28;20184;-43
2024/02/27 02:01:38;;;;;;;221.75;58.47;;;;;;;;;;4994481;28;20201;-46
2024/02/27 02:04:07;;;;;;;224.10;60.15;;;;;;;;;;4994405;28;20184;-44
2024/02/27 02:06:33;;;;;;;220.20;57.67;;;;;;;;;;4994600;28;20269;-44
2024/02/27 02:08:59;;;;;;;221.60;57.83;;;;;;;;;;4993948;28;20260;-45
2024/02/27 02:11:25;;;;;;;221.27;58.30;;;;;;;;;;4994903;28;20296;-45
2024/02/27 02:13:51;;;;;;;221.37;58.90;;;;;;;;;;4994647;28;20310;-46
2024/02/27 02:16:17;;;;;;;220.57;57.90;;;;;;;;;;4994426;28;20406;-45
2024/02/27 02:18:43;;;;;;;219.13;58.00;;;;;;;;;;4993600;28;20184;-44
2024/02/27 02:21:09;;;;;;;219.57;56.70;;;;;;;;;;4987743;28;20444;-46
2024/02/27 02:23:35;;;;;;;218.43;56.50;;;;;;;;;;4994720;28;20480;-50
2024/02/27 02:26:02;;;;;;;220.77;57.20;;;;;;;;;;4994492;28;20447;-44
2024/02/27 02:28:28;;;;;;;219.60;57.10;;;;;;;;;;4994541;28;20452;-48
2024/02/27 02:30:54;;;;;;;221.40;57.70;;;;;;;;;;4994332;28;20533;-45
2024/02/27 02:33:20;;;;;;;220.40;57.38;;;;;;;;;;4994526;28;20181;-45
2024/02/27 02:35:46;;;;;;;220.55;57.70;;;;;;;;;;4994520;28;20175;-44
2024/02/27 02:38:12;;;;;;;220.50;58.00;;;;;;;;;;4994234;28;20625;-44
2024/02/27 02:40:38;;;;;;;221.40;57.47;;;;;;;;;;4994090;28;20226;-44
2024/02/27 02:43:04;;;;;;;218.00;56.30;;;;;;;;;;4995118;28;20650;-44
2024/02/27 02:45:30;;;;;;;219.43;58.03;;;;;;;;;;4993987;28;20256;-44
2024/02/27 02:47:57;;;;;;;216.90;56.03;;;;;;;;;;4994546;28;20260;-46
2024/02/27 02:50:23;;;;;;;216.68;54.42;;;;;;;;;;4994207;28;20432;-44
2024/02/27 02:52:49;;;;;;;220.73;57.85;;;;;;;;;;4993830;28;20195;-44
2024/02/27 02:55:15;;;;;;;222.33;59.70;;;;;;;;;;4994069;28;20185;-45
2024/02/27 02:57:41;;;;;;;220.45;58.80;;;;;;;;;;4990750;28;20423;-45
2024/02/27 03:00:11;;;;;;;218.50;56.67;;;;;;;;;;4993994;28;20178;-44
2024/02/27 03:02:37;;;;;;;220.32;57.22;;;;;;;;;;4993855;28;20489;-44
2024/02/27 03:05:05;;;;;;;220.77;58.28;;;;;;;;;;4994188;28;20626;-44
2024/02/27 03:07:31;;;;;;;220.25;58.33;;;;;;;;;;4994209;28;20317;-44
2024/02/27 03:09:56;;;;;;;221.97;59.07;;;;;;;;;;4993615;28;20307;-45
2024/02/27 03:12:23;;;;;;;218.90;56.70;;;;;;;;;;4993805;28;20940;-48
2024/02/27 03:14:49;;;;;;;219.98;57.75;;;;;;;;;;4993616;28;20762;-45
2024/02/27 03:17:16;;;;;;;219.80;57.67;;;;;;;;;;4993380;28;20292;-47
2024/02/27 03:19:42;;;;;;;223.60;59.40;;;;;;;;;;4993608;28;20408;-44
2024/02/27 03:22:09;;;;;;;220.75;58.38;;;;;;;;;;4993367;28;20201;-45
2024/02/27 03:24:36;;;;;;;219.73;58.08;;;;;;;;;;4993538;28;20262;-46
2024/02/27 03:27:02;;;;;;;220.70;58.75;;;;;;;;;;4992834;28;20182;-46
2024/02/27 03:29:29;;;;;;;219.73;57.45;;;;;;;;;;4993483;28;20205;-47
2024/02/27 03:31:55;;;;;;;220.00;57.03;;;;;;;;;;4993474;28;20283;-47
2024/02/27 03:34:21;;;;;;;219.17;57.70;;;;;;;;;;4993937;28;20212;-44
2024/02/27 03:36:47;;;;;;;223.45;59.58;;;;;;;;;;4992758;28;20410;-44
2024/02/27 03:39:16;;;;;;;220.73;58.90;;;;;;;;;;4993304;28;20184;-45
2024/02/27 03:41:42;;;;;;;222.52;60.53;;;;;;;;;;4992902;28;20455;-46
2024/02/27 03:44:08;;;;;;;217.07;56.72;;;;;;;;;;4993185;28;20172;-44
2024/02/27 03:46:34;;;;;;;218.67;58.10;;;;;;;;;;4993201;28;20558;-44
2024/02/27 03:49:00;;;;;;;220.23;58.27;;;;;;;;;;4992993;28;20482;-44
2024/02/27 03:51:26;;;;;;;222.60;60.27;;;;;;;;;;4992975;28;20931;-44
2024/02/27 03:53:51;;;;;;;219.60;57.97;;;;;;;;;;4993386;28;20493;-44
2024/02/27 03:56:17;;;;;;;219.77;58.03;;;;;;;;;;4992117;28;20491;-45
2024/02/27 03:58:43;;;;;;;220.80;58.23;;;;;;;;;;4990614;28;20417;-47
2024/02/27 04:01:09;;;;;;;219.18;58.20;;;;;;;;;;4992824;28;20436;-44
2024/02/27 04:03:35;;;;;;;218.63;57.70;;;;;;;;;;4992634;28;20645;-46
2024/02/27 04:06:01;;;;;;;218.77;57.67;;;;;;;;;;4992472;28;20916;-44
2024/02/27 04:08:27;;;;;;;219.80;58.40;;;;;;;;;;4992706;28;20820;-45
2024/02/27 04:10:53;;;;;;;219.13;57.93;;;;;;;;;;4992536;28;20404;-46
2024/02/27 04:13:19;;;;;;;219.47;58.30;;;;;;;;;;4992587;28;20408;-47
2024/02/27 04:15:46;;;;;;;219.63;58.83;;;;;;;;;;4984487;28;20642;-45
2024/02/27 04:18:12;;;;;;;217.80;56.55;;;;;;;;;;4992295;28;20170;-44
2024/02/27 04:20:38;;;;;;;220.20;58.78;;;;;;;;;;4992390;28;20200;-45
2024/02/27 04:23:04;;;;;;;219.47;58.67;;;;;;;;;;4991740;28;20251;-47
2024/02/27 04:25:31;;;;;;;217.27;58.40;;;;;;;;;;4992307;28;20410;-44
2024/02/27 04:27:57;;;;;;;218.57;57.60;;;;;;;;;;4992390;28;20419;-44
2024/02/27 04:30:23;;;;;;;219.67;58.10;;;;;;;;;;4992243;28;20182;-47
2024/02/27 04:32:49;;;;;;;218.33;57.37;;;;;;;;;;4991986;28;20440;-45
2024/02/27 04:35:15;;;;;;;219.80;58.63;;;;;;;;;;4992030;28;20421;-43
2024/02/27 04:37:41;;;;;;;220.35;59.25;;;;;;;;;;4992409;28;20570;-44
2024/02/27 04:40:09;;;;;;;219.23;57.47;;;;;;;;;;4992239;28;20184;-44
2024/02/27 04:42:34;;;;;;;219.70;58.22;;;;;;;;;;4991854;28;20477;-45
2024/02/27 04:45:00;;;;;;;220.45;58.72;;;;;;;;;;4991892;28;20688;-46
2024/02/27 04:47:26;;;;;;;219.13;58.37;;;;;;;;;;4991717;28;20185;-45
2024/02/27 04:49:52;;;;;;;221.30;59.50;;;;;;;;;;4991948;28;20470;-44
2024/02/27 04:52:18;;;;;;;220.43;60.00;;;;;;;;;;4991847;28;20199;-43
2024/02/27 04:54:44;;;;;;;221.43;60.20;;;;;;;;;;4991757;28;20492;-44
2024/02/27 04:57:10;;;;;;;219.73;59.10;;;;;;;;;;4988547;28;20410;-44
2024/02/27 04:59:36;;;;;;;220.07;58.30;;;;;;;;;;4992308;28;20407;-46
2024/02/27 05:02:03;;;;;;;222.87;60.33;;;;;;;;;;4991616;28;20523;-47
2024/02/27 05:04:29;;;;;;;220.00;57.83;;;;;;;;;;4991755;28;20415;-44
2024/02/27 05:06:56;;;;;;;218.70;57.00;;;;;;;;;;4991378;28;20190;-45
2024/02/27 05:09:22;;;;;;;220.82;59.10;;;;;;;;;;4991506;28;20204;-45
2024/02/27 05:11:48;;;;;;;219.60;58.60;;;;;;;;;;4991693;28;20218;-44
2024/02/27 05:14:14;;;;;;;221.23;59.35;;;;;;;;;;4991597;28;20480;-44
2024/02/27 05:16:40;;;;;;;223.48;60.72;;;;;;;;;;4991156;28;20592;-45
2024/02/27 05:19:07;;;;;;;219.80;58.03;;;;;;;;;;4991568;28;20185;-46
2024/02/27 05:21:33;;;;;;;219.77;57.90;;;;;;;;;;4991713;28;21030;-44
2024/02/27 05:23:59;;;;;;;220.50;58.73;;;;;;;;;;4991720;28;20264;-44
2024/02/27 05:26:26;;;;;;;220.52;57.95;;;;;;;;;;4991339;28;20416;-45
2024/02/27 05:28:52;;;;;;;221.52;60.78;;;;;;;;;;4991208;28;20193;-46
2024/02/27 05:31:22;;;;;;;219.73;58.08;;;;;;;;;;4991344;28;20196;-46
2024/02/27 05:33:48;;;;;;;221.38;61.55;;;;;;;;;;4993521;28;20478;-44
2024/02/27 05:36:14;;;;;;;218.97;57.80;;;;;;;;;;4995312;28;20169;-45
2024/02/27 05:38:40;;;;;;;217.83;57.67;;;;;;;;;;4995336;28;20930;-44
2024/02/27 05:41:06;;;;;;;216.83;56.90;;;;;;;;;;4995376;28;20979;-44
2024/02/27 05:43:32;;;;;;;220.63;58.90;;;;;;;;;;4995593;28;20940;-44
2024/02/27 05:45:58;;;;;;;219.52;59.08;;;;;;;;;;4995119;28;20473;-44
2024/02/27 05:48:24;;;;;;;219.47;58.60;;;;;;;;;;4995121;28;20606;-44
2024/02/27 05:50:50;;;;;;;220.27;59.00;;;;;;;;;;4995161;28;20415;-44
2024/02/27 05:53:16;;;;;;;219.83;58.60;;;;;;;;;;4994705;28;20543;-47
2024/02/27 05:55:42;;;;;;;219.77;58.80;;;;;;;;;;4993075;28;20413;-47
2024/02/27 05:58:08;;;;;;;221.90;60.83;;;;;;;;;;4991307;28;20731;-44
2024/02/27 06:00:34;;;;;;;219.83;58.60;;;;;;;;;;4994605;28;20414;-44
2024/02/27 06:03:00;;;;;;;217.87;57.97;;;;;;;;;;4994414;28;20437;-44
2024/02/27 06:05:26;;;;;;;219.50;58.43;;;;;;;;;;4994416;28;20408;-44
2024/02/27 06:07:53;;;;;;;219.47;59.20;;;;;;;;;;4994273;28;20451;-45
2024/02/27 06:10:19;;;;;;;221.18;59.55;;;;;;;;;;4994868;28;20482;-44
2024/02/27 06:12:45;;;;;;;222.85;60.15;;;;;;;;;;4994631;28;20269;-44
2024/02/27 06:15:11;;;;;;;220.43;60.47;;;;;;;;;;4994679;28;20632;-44
2024/02/27 06:17:37;;;;;;;218.40;57.30;;;;;;;;;;4994813;28;20408;-45
2024/02/27 06:20:09;;;;;;;218.03;57.30;;;;;;;;;;4994693;28;20423;-46
2024/02/27 06:22:35;;;;;;;219.10;58.65;;;;;;;;;;4994662;28;20434;-46
2024/02/27 06:25:02;;;;;;;225.15;64.68;;;;;;;;;;4994341;28;20586;-46
2024/02/27 06:27:29;;;;;;;221.80;60.35;;;;;;;;;;4994609;28;20208;-44
2024/02/27 06:29:55;;;;;;;220.27;59.50;;;;;;;;;;4994583;28;20735;-44
2024/02/27 06:32:21;;;;;;;220.50;59.93;;;;;;;;;;4994489;28;20200;-44
2024/02/27 06:34:47;;;;;;;236.00;70.07;;;;;;;;;;4990647;28;20416;-44
2024/02/27 06:37:13;;;;;;;219.63;58.53;;;;;;;;;;4974838;28;20180;-45
2024/02/27 06:39:39;;;;;;;220.80;60.10;;;;;;;;;;4975044;28;20264;-45
2024/02/27 06:42:07;;;;;;;220.73;59.30;;;;;;;;;;4976951;28;20297;-44
2024/02/27 06:44:34;;;;;;;216.57;57.90;;;;;;;;;;4977933;28;20176;-45
2024/02/27 06:47:00;;;;;;;220.88;60.55;;;;;;;;;;4986713;28;20182;-47
2024/02/27 06:49:26;;;;;;;218.20;59.17;;;;;;;;;;4975103;28;20205;-49
2024/02/27 06:51:52;;;;;;;219.97;59.83;;;;;;;;;;4974937;28;20445;-43
2024/02/27 06:54:18;;;;;;;222.47;62.00;;;;;;;;;;4974813;28;20406;-44
2024/02/27 06:56:44;;;;;;;220.68;61.72;;;;;;;;;;4974438;28;20503;-44
2024/02/27 06:59:10;;;;;;;217.07;58.07;;;;;;;;;;4978487;28;20681;-45
2024/02/27 07:01:36;;;;;;;219.20;59.20;;;;;;;;;;4980021;28;20636;-45
2024/02/27 07:04:02;;;;;;;220.43;60.97;;;;;;;;;;4981833;28;20299;-44
2024/02/27 07:06:28;;;;;;;219.35;59.20;;;;;;;;;;4974803;28;20280;-50
2024/02/27 07:08:55;;;;;;;221.17;60.97;;;;;;;;;;4976677;28;20310;-47
2024/02/27 07:11:21;;;;;;;218.52;58.28;;;;;;;;;;4976274;28;20421;-44
2024/02/27 07:13:47;;;;;;;219.23;59.78;;;;;;;;;;4976552;28;20229;-44
2024/02/27 07:16:13;;;;;;;218.50;59.53;;;;;;;;;;4979905;28;20166;-44
2024/02/27 07:18:39;;;;;;;219.40;61.53;;;;;;;;;;4981268;28;20414;-49
2024/02/27 07:21:05;;;;;;;216.87;58.33;;;;;;;;;;4974827;28;20521;-43
2024/02/27 07:23:31;;;;;;;219.15;60.35;;;;;;;;;;4976371;28;20445;-44
2024/02/27 07:25:57;;;;;;;219.60;61.03;;;;;;;;;;4972790;28;20186;-43
2024/02/27 07:28:23;;;;;;;218.17;60.67;;;;;;;;;;4977783;28;20181;-44
2024/02/27 07:30:50;;;;;;;220.87;62.47;;;;;;;;;;4976246;28;20436;-44
2024/02/27 07:33:16;;;;;;;218.77;61.00;;;;;;;;;;4980339;28;20401;-44
2024/02/27 07:35:42;;;;;;;222.30;62.83;;;;;;;;;;4974371;28;20260;-44
2024/02/27 07:38:08;;;;;;;220.27;62.30;;;;;;;;;;4976160;28;20205;-45
2024/02/27 07:40:34;;;;;;;217.82;57.80;;;;;;;;;;4972705;28;20421;-44
2024/02/27 07:43:00;;;;;;;218.97;60.63;;;;;;;;;;4974387;28;20207;-45
2024/02/27 07:45:26;;;;;;;216.27;58.55;;;;;;;;;;4973691;28;20778;-44
2024/02/27 07:47:52;;;;;;;219.53;60.17;;;;;;;;;;4974533;28;20177;-47
2024/02/27 07:50:18;;;;;;;218.67;60.40;;;;;;;;;;4973748;28;20506;-44
2024/02/27 07:52:44;;;;;;;218.15;61.33;;;;;;;;;;4975631;28;20918;-44
2024/02/27 07:55:10;;;;;;;222.17;63.30;;;;;;;;;;4976885;28;20212;-44
2024/02/27 07:57:36;;;;;;;219.75;60.00;;;;;;;;;;4982445;28;20516;-47
2024/02/27 08:00:02;;;;;;;216.70;58.63;;;;;;;;;;4993222;28;20205;-46
2024/02/27 08:02:28;;;;;;;216.60;59.13;;;;;;;;;;4993242;28;20425;-46
2024/02/27 08:04:54;;;;;;;217.43;58.87;;;;;;;;;;4993088;28;20192;-47
2024/02/27 08:07:20;;;;;;;219.07;58.97;;;;;;;;;;4992652;28;20448;-46
2024/02/27 08:09:46;;;;;;;219.27;58.33;;;;;;;;;;4992556;28;20452;-46
2024/02/27 08:12:13;;;;;;;214.67;56.80;;;;;;;;;;4992790;28;20201;-48
2024/02/27 08:14:38;;;;;;;219.88;59.85;;;;;;;;;;4992695;28;20444;-48
2024/02/27 08:17:05;;;;;;;217.83;59.80;;;;;;;;;;4992781;28;20201;-49
2024/02/27 08:19:31;;;;;;;222.23;61.28;;;;;;;;;;4986503;28;20778;-46
2024/02/27 08:22:03;;;;;;;216.90;57.37;;;;;;;;;;4980114;28;20201;-47
2024/02/27 08:24:29;;;;;;;216.85;57.88;;;;;;;;;;4993016;28;20417;-47
2024/02/27 08:26:55;;;;;;;218.40;59.65;;;;;;;;;;4989093;28;20295;-48
2024/02/27 08:29:21;;;;;;;217.27;57.60;;;;;;;;;;4992949;28;20783;-48
2024/02/27 08:31:47;;;;;;;222.97;62.30;;;;;;;;;;4992454;28;20879;-47
2024/02/27 08:34:13;;;;;;;218.20;59.00;;;;;;;;;;4992283;28;20779;-46
2024/02/27 08:36:39;;;;;;;220.82;61.63;;;;;;;;;;4991624;28;20409;-46
2024/02/27 08:39:05;;;;;;;218.73;60.20;;;;;;;;;;4990616;28;20656;-46
2024/02/27 08:41:33;;;;;;;218.35;59.47;;;;;;;;;;4993091;28;20456;-44
2024/02/27 08:43:59;;;;;;;219.38;60.80;;;;;;;;;;4992252;28;20631;-43
2024/02/27 08:46:25;;;;;;;221.30;61.87;;;;;;;;;;4991982;28;20185;-44
2024/02/27 08:48:51;;;;;;;220.32;62.38;;;;;;;;;;4991787;28;20576;-45
2024/02/27 08:51:18;;;;;;;222.25;62.20;;;;;;;;;;4991673;28;20201;-45
2024/02/27 08:53:44;;;;;;;219.02;59.75;;;;;;;;;;4991845;28;20177;-44
2024/02/27 08:56:10;;;;;;;217.20;59.15;;;;;;;;;;4991792;28;20179;-44
2024/02/27 08:58:36;;;;;;;216.55;59.40;;;;;;;;;;4988608;28;20732;-47
2024/02/27 09:01:03;;;;;;;220.07;62.67;;;;;;;;;;4991840;28;20203;-44
2024/02/27 09:03:29;;;;;;;220.32;62.60;;;;;;;;;;4973659;28;20240;-44
2024/02/27 09:05:55;;;;;;;221.90;62.30;;;;;;;;;;4974730;28;21423;-44
2024/02/27 09:08:22;;;;;;;216.90;59.78;;;;;;;;;;4991146;28;20891;-47
2024/02/27 09:10:48;;;;;;;216.48;59.80;;;;;;;;;;4982781;28;20179;-44
2024/02/27 09:13:13;;;;;;;218.80;60.93;;;;;;;;;;4991576;28;20257;-44
2024/02/27 09:15:39;;;;;;;217.80;60.70;;;;;;;;;;4985185;28;20408;-45
2024/02/27 09:18:05;;;;;;;220.50;62.90;;;;;;;;;;4991482;28;20480;-45
2024/02/27 09:20:32;;;;;;;221.93;64.87;;;;;;;;;;4991315;28;20458;-44
2024/02/27 09:22:58;;;;;;;218.45;60.65;;;;;;;;;;4990958;28;20933;-44
2024/02/27 09:25:24;;;;;;;219.95;62.63;;;;;;;;;;4991373;28;20182;-44
2024/02/27 09:27:50;;;;;;;219.23;61.70;;;;;;;;;;4991511;28;20181;-44
2024/02/27 09:30:16;;;;;;;216.73;60.43;;;;;;;;;;4991470;28;20571;-44
2024/02/27 09:32:42;;;;;;;221.05;64.38;;;;;;;;;;4991149;28;20452;-44
2024/02/27 09:35:08;;;;;;;223.97;67.03;;;;;;;;;;4990951;28;20259;-45
2024/02/27 09:37:36;;;;;;;219.20;62.55;;;;;;;;;;4991261;28;20417;-45
2024/02/27 09:40:02;;;;;;;218.98;61.45;;;;;;;;;;4991349;28;20174;-47
2024/02/27 09:42:30;;;;;;;217.32;60.45;;;;;;;;;;4991174;28;20214;-46
2024/02/27 09:44:58;;;;;;;218.93;62.03;;;;;;;;;;4991115;28;20181;-44
2024/02/27 09:47:28;;;;;;;222.07;62.90;;;;;;;;;;4991328;28;20690;-45
2024/02/27 09:49:56;;;;;;;222.02;63.28;;;;;;;;;;4991183;28;20234;-44
2024/02/27 09:52:23;;;;;;;219.85;61.40;;;;;;;;;;4991211;28;20203;-44
2024/02/27 09:54:50;;;;;;;222.70;63.20;;;;;;;;;;4991141;28;20635;-44
2024/02/27 09:57:16;;;;;;;218.90;61.28;;;;;;;;;;4989152;28;20176;-47
2024/02/27 09:59:42;;;;;;;221.07;63.47;;;;;;;;;;4988630;28;20198;-47
2024/02/27 10:02:16;;;;;;;221.30;63.03;;;;;;;;;;4991342;28;20217;-44
2024/02/27 10:04:42;;;;;;;220.40;62.05;;;;;;;;;;4991031;28;20662;-44
2024/02/27 10:07:11;;;;;;;218.80;61.83;;;;;;;;;;4990879;28;20642;-44
2024/02/27 10:09:44;;;;;;;219.18;61.22;;;;;;;;;;4991013;28;20211;-45
2024/02/27 10:12:11;;;;;;;221.55;63.03;;;;;;;;;;4991032;28;20186;-44
2024/02/27 10:14:38;;;;;;;222.07;65.22;;;;;;;;;;4984532;28;20199;-47
2024/02/27 10:17:08;;;;;;;220.70;63.25;;;;;;;;;;4990664;28;20282;-46
2024/02/27 10:19:35;;;;;;;220.77;61.58;;;;;;;;;;4990949;28;20259;-44
2024/02/27 10:22:01;;;;;;;220.35;61.55;;;;;;;;;;4994593;28;20198;-45
2024/02/27 10:24:28;;;;;;;218.38;61.45;;;;;;;;;;4994627;28;20182;-44
2024/02/27 10:26:59;;;;;;;219.82;62.70;;;;;;;;;;4994135;28;20209;-44
2024/02/27 10:29:28;;;;;;;220.90;64.50;;;;;;;;;;4994200;28;20654;-44
2024/02/27 10:31:54;;;;;;;221.63;63.67;;;;;;;;;;4994443;28;20193;-47
2024/02/27 10:34:21;;;;;;;222.07;63.30;;;;;;;;;;4994528;28;20175;-44
2024/02/27 10:37:09;;;;;;;222.23;63.58;;;;;;;;;;4994091;28;20207;-44
2024/02/27 10:39:35;;;;;;;221.25;60.80;;;;;;;;;;4994240;28;20182;-44
2024/02/27 10:42:01;;;;;;;223.95;65.35;;;;;;;;;;4993957;28;20249;-45
2024/02/27 10:44:27;;;;;;;220.60;62.80;;;;;;;;;;4994240;28;20277;-45
2024/02/27 10:46:58;;;;;;;222.77;63.35;;;;;;;;;;4993776;28;20178;-46
2024/02/27 10:49:24;;;;;;;221.98;63.90;;;;;;;;;;4994088;28;20230;-44
2024/02/27 10:51:52;;;;;;;224.10;65.87;;;;;;;;;;4994023;28;20241;-45
2024/02/27 10:54:18;;;;;;;224.70;65.65;;;;;;;;;;4994016;28;20617;-44
2024/02/27 10:56:46;;;;;;;225.40;66.13;;;;;;;;;;4993783;28;20549;-46
2024/02/27 10:59:12;;;;;;;227.15;66.93;;;;;;;;;;4989519;28;20612;-45
2024/02/27 11:01:40;;;;;;;226.27;67.47;;;;;;;;;;4994026;28;20202;-45
2024/02/27 11:04:08;;;;;;;223.85;64.07;;;;;;;;;;4993875;28;20595;-44
2024/02/27 11:06:35;;;;;;;228.10;69.78;;;;;;;;;;4993471;28;20177;-45
2024/02/27 11:09:03;;;;;;;227.25;68.15;;;;;;;;;;4994073;28;20305;-44
2024/02/27 11:11:30;;;;;;;224.07;64.85;;;;;;;;;;4993750;28;20201;-43
2024/02/27 11:13:59;;;;;;;223.18;66.03;;;;;;;;;;4993087;28;20598;-44
2024/02/27 11:16:26;;;;;;;225.73;68.03;;;;;;;;;;4989059;28;20183;-44
2024/02/27 11:18:54;;;;;;;226.73;66.22;;;;;;;;;;4993561;28;20184;-44
2024/02/27 11:21:21;;;;;;;228.38;67.95;;;;;;;;;;4993426;28;20482;-44
2024/02/27 11:23:47;;;;;;;227.35;68.00;;;;;;;;;;4993643;28;20187;-44
2024/02/27 11:26:13;;;;;;;228.60;67.30;;;;;;;;;;4993301;28;20259;-44
2024/02/27 11:28:40;;;;;;;225.85;67.47;;;;;;;;;;4993374;28;20616;-44
2024/02/27 11:31:07;;;;;;;226.50;67.75;;;;;;;;;;4992985;28;20192;-44
2024/02/27 11:33:48;;;;;;;225.00;65.05;;;;;;;;;;4993734;28;20179;-44
2024/02/27 11:36:15;;;;;;;227.60;67.85;;;;;;;;;;4993105;28;20187;-46
2024/02/27 11:38:44;;;;;;;225.93;66.32;;;;;;;;;;4993131;28;20176;-46
2024/02/27 11:41:16;;;;;;;227.38;69.68;;;;;;;;;;4993305;28;20227;-44
2024/02/27 11:43:46;;;;;;;231.90;72.50;;;;;;;;;;4993139;28;20808;-44
2024/02/27 11:46:30;;;;;;;228.40;67.95;;;;;;;;;;4992802;28;20204;-44
2024/02/27 11:48:56;;;;;;;232.23;72.05;;;;;;;;;;4974441;28;20271;-46
2024/02/27 11:51:26;;;;;;;230.95;70.63;;;;;;;;;;4991245;28;20193;-46
2024/02/27 11:53:52;;;;;;;231.38;69.85;;;;;;;;;;4992901;28;20169;-44
2024/02/27 11:56:18;;;;;;;229.50;72.25;;;;;;;;;;4992709;28;20300;-44
2024/02/27 11:58:47;;;;;;;229.40;68.28;;;;;;;;;;4987980;28;20645;-44
2024/02/27 12:01:14;;;;;;;229.90;69.28;;;;;;;;;;4992818;28;20279;-44
2024/02/27 12:03:40;;;;;;;228.40;68.45;;;;;;;;;;4992979;28;20180;-44
2024/02/27 12:06:08;;;;;;;228.35;68.35;;;;;;;;;;4992480;28;20180;-44
2024/02/27 12:08:34;;;;;;;229.90;71.32;;;;;;;;;;4992537;28;20177;-45
2024/02/27 12:11:00;;;;;;;231.05;70.13;;;;;;;;;;4992550;28;20228;-45
2024/02/27 12:13:26;;;;;;;237.98;76.97;;;;;;;;;;4992318;28;20645;-46
2024/02/27 12:15:56;;;;;;;232.55;71.05;;;;;;;;;;4986031;28;20311;-44
2024/02/27 12:18:22;;;;;;;235.77;73.65;;;;;;;;;;4992588;28;20182;-45
2024/02/27 12:20:50;;;;;;;236.10;73.25;;;;;;;;;;4992306;28;20181;-45
2024/02/27 12:23:16;;;;;;;238.00;74.95;;;;;;;;;;4992608;28;20540;-45
2024/02/27 12:25:42;;;;;;;236.40;73.87;;;;;;;;;;4992330;28;20256;-46
2024/02/27 12:28:09;;;;;;;239.35;76.05;;;;;;;;;;4992055;28;20450;-44
2024/02/27 12:30:35;;;;;;;243.57;78.80;;;;;;;;;;4990512;28;20682;-45
2024/02/27 12:33:02;;;;;;;245.75;81.38;;;;;;;;;;4990620;28;20204;-44
2024/02/27 12:35:28;;;;;;;246.02;81.15;;;;;;;;;;4991292;28;20262;-47
2024/02/27 12:37:54;;;;;;;248.40;84.33;;;;;;;;;;4990260;28;20267;-47
2024/02/27 12:40:20;;;;;;;251.57;86.47;;;;;;;;;;4991187;28;20463;-45
2024/02/27 12:42:50;;;;;;;249.20;85.13;;;;;;;;;;4990965;28;20548;-44
2024/02/27 12:45:17;;;;;;;258.63;91.77;;;;;;;;;;4991756;28;20418;-45
2024/02/27 12:47:46;;;;;;;252.27;86.70;;;;;;;;;;4992402;28;20424;-45
2024/02/27 12:50:12;;;;;;;249.53;84.33;;;;;;;;;;4992261;28;20820;-45
2024/02/27 12:52:39;;;;;;;253.77;92.07;;;;;;;;;;4992002;28;20995;-46
2024/02/27 12:55:06;;;;;;;259.37;98.27;;;;;;;;;;4991697;28;20417;-47
2024/02/27 12:57:32;;;;;;;249.57;84.93;;;;;;;;;;4988129;28;20693;-45
2024/02/27 12:59:58;;;;;;;251.43;88.47;;;;;;;;;;4991670;28;20784;-47
2024/02/27 13:02:25;;;;;;;246.70;85.63;;;;;;;;;;4991893;28;20442;-45
2024/02/27 13:04:51;;;;;;;255.37;93.40;;;;;;;;;;4991723;28;20966;-44
2024/02/27 13:07:17;;;;;;;249.73;87.72;;;;;;;;;;4991626;28;20417;-44
2024/02/27 13:09:44;;;;;;;256.10;96.00;;;;;;;;;;4991592;28;20197;-45
2024/02/27 13:12:13;;;;;;;250.77;89.30;;;;;;;;;;4992136;28;20439;-44
2024/02/27 13:14:39;;;;;;;247.90;85.07;;;;;;;;;;4991691;28;20466;-47
2024/02/27 13:17:05;;;;;;;247.70;85.63;;;;;;;;;;4991312;28;20448;-47
2024/02/27 13:19:31;;;;;;;246.43;85.70;;;;;;;;;;4991685;28;20421;-47
2024/02/27 13:21:57;;;;;;;244.63;82.17;;;;;;;;;;4991661;28;20530;-45
2024/02/27 13:24:24;;;;;;;245.77;83.00;;;;;;;;;;4991484;28;20416;-47
2024/02/27 13:26:50;;;;;;;249.37;89.13;;;;;;;;;;4991213;28;20822;-46
2024/02/27 13:29:16;;;;;;;244.77;85.60;;;;;;;;;;4991497;28;20521;-46
2024/02/27 13:31:42;;;;;;;252.83;94.27;;;;;;;;;;4991585;28;20533;-48
2024/02/27 13:34:08;;;;;;;246.27;84.27;;;;;;;;;;4991791;28;20496;-44
2024/02/27 13:36:34;;;;;;;242.90;79.60;;;;;;;;;;4991330;28;20941;-44
2024/02/27 13:39:00;;;;;;;244.50;79.97;;;;;;;;;;4991352;28;20795;-44
2024/02/27 13:41:26;;;;;;;245.57;86.17;;;;;;;;;;4990143;28;20469;-44
2024/02/27 13:43:52;;;;;;;247.53;87.50;;;;;;;;;;4991374;28;20418;-44
2024/02/27 13:46:18;;;;;;;248.13;85.20;;;;;;;;;;4991118;28;20501;-46
2024/02/27 13:48:44;;;;;;;253.27;91.13;;;;;;;;;;4986574;28;20542;-44
2024/02/27 13:51:10;;;;;;;251.30;92.13;;;;;;;;;;4983091;28;20440;-46
2024/02/27 13:53:36;;;;;;;248.03;86.17;;;;;;;;;;4989393;28;20928;-45
2024/02/27 13:56:02;;;;;;;243.57;81.27;;;;;;;;;;4993911;28;20410;-44
2024/02/27 13:58:28;;;;;;;244.17;82.17;;;;;;;;;;4990240;28;20431;-44
2024/02/27 14:00:54;;;;;;;246.37;83.30;;;;;;;;;;4993437;28;20411;-46